createdAt,value
2023-02-04T09:26:29.686Z,108.10
2023-02-04T09:28:56.506Z,106.45
2023-02-04T09:31:23.468Z,110.10
2023-02-04T09:33:50.442Z,110.75
2023-02-04T09:36:17.545Z,121.25
2023-02-04T09:38:44.425Z,135.00
2023-02-04T09:41:12.961Z,142.02
2023-02-04T09:43:44.173Z,133.95
2023-02-04T09:46:23.214Z,134.48
2023-02-04T09:48:51.003Z,137.93
2023-02-04T09:51:25.665Z,140.48
2023-02-04T09:53:54.246Z,145.45
2023-02-04T09:56:21.135Z,148.77
2023-02-04T09:58:48.009Z,148.40
2023-02-04T10:01:20.270Z,142.30
2023-02-04T10:03:50.264Z,148.35
2023-02-04T10:06:23.516Z,149.40
2023-02-04T10:08:51.593Z,150.40
2023-02-04T10:11:20.706Z,152.73
2023-02-04T10:13:53.831Z,148.48
2023-02-04T10:16:29.863Z,150.85
2023-02-04T10:19:05.175Z,142.00
2023-02-04T10:21:40.410Z,140.68
2023-02-04T10:24:22.626Z,139.57
2023-02-04T10:26:49.589Z,132.77
2023-02-04T10:29:23.926Z,129.98
2023-02-04T10:31:52.202Z,132.27
2023-02-04T10:34:24.451Z,128.90
2023-02-04T10:36:53.960Z,123.47
2023-02-04T10:39:23.582Z,128.38
2023-02-04T10:41:51.481Z,129.10
2023-02-04T10:44:21.313Z,124.53
2023-02-04T10:46:48.501Z,125.65
2023-02-04T10:49:22.010Z,129.25
2023-02-04T10:51:50.790Z,129.70
2023-02-04T10:54:30.582Z,128.80
2023-02-04T10:57:28.975Z,131.93
2023-02-04T11:00:01.482Z,140.75
2023-02-04T11:02:42.868Z,142.68
2023-02-04T11:05:18.867Z,138.68
2023-02-04T11:07:47.450Z,139.82
2023-02-04T11:10:17.060Z,141.77
2023-02-04T11:12:53.076Z,145.93
2023-02-04T11:15:38.726Z,138.75
2023-02-04T11:18:08.286Z,141.13
2023-02-04T11:20:39.775Z,141.40
2023-02-04T11:23:16.687Z,143.70
2023-02-04T11:25:43.553Z,147.38
2023-02-04T11:28:25.390Z,147.82
2023-02-04T11:31:03.890Z,146.32
2023-02-04T11:33:42.668Z,138.55
2023-02-04T11:36:13.556Z,141.65
2023-02-04T11:38:46.507Z,144.45
2023-02-04T11:41:33.701Z,135.13
2023-02-04T11:44:03.681Z,140.05
2023-02-04T11:46:30.738Z,134.80
2023-02-04T11:48:58.913Z,138.10
2023-02-04T11:51:32.533Z,138.43
2023-02-04T11:53:59.658Z,140.85
2023-02-04T11:56:30.150Z,144.30
2023-02-04T11:58:58.670Z,147.65
2023-02-04T12:01:32.032Z,140.38
2023-02-04T12:04:04.722Z,145.85
2023-02-04T12:09:16.476Z,145.57
2023-02-04T12:12:03.966Z,151.43
2023-02-04T12:14:36.831Z,143.82
2023-02-04T12:17:20.027Z,148.50
2023-02-04T12:19:46.845Z,150.43
2023-02-04T12:22:15.659Z,143.25
2023-02-04T12:24:44.041Z,143.77
2023-02-04T12:27:10.987Z,144.70
2023-02-04T12:29:37.769Z,150.50
2023-02-04T12:32:04.875Z,137.70
2023-02-04T12:34:31.755Z,134.43
2023-02-04T12:37:01.599Z,137.85
2023-02-04T12:39:28.719Z,135.32
2023-02-04T12:41:55.622Z,139.90
2023-02-04T12:44:22.446Z,135.40
2023-02-04T12:46:49.390Z,144.07
2023-02-04T12:49:16.306Z,130.48
2023-02-04T12:51:43.194Z,130.60
2023-02-04T12:54:10.046Z,136.00
2023-02-04T12:56:36.929Z,136.73
2023-02-04T12:59:03.821Z,145.02
2023-02-04T13:01:30.614Z,143.18
2023-02-04T13:03:58.205Z,143.07
2023-02-04T13:06:25.082Z,135.30
2023-02-04T13:08:51.961Z,140.98
2023-02-04T13:11:22.243Z,129.02
2023-02-04T13:13:49.061Z,124.82
2023-02-04T13:16:18.147Z,117.50
2023-02-04T13:18:45.090Z,115.95
2023-02-04T13:21:11.902Z,132.60
2023-02-04T13:23:38.785Z,135.88
2023-02-04T13:26:06.061Z,136.23
2023-02-04T13:28:32.867Z,127.43
2023-02-04T13:30:59.745Z,126.10
2023-02-04T13:33:26.932Z,128.27
2023-02-04T13:35:53.706Z,122.22
2023-02-04T13:38:20.614Z,113.15
2023-02-04T13:40:47.468Z,112.15
2023-02-04T13:43:17.267Z,123.97
2023-02-04T13:45:49.096Z,121.70
2023-02-04T13:48:16.645Z,121.72
2023-02-04T13:50:43.559Z,114.15
2023-02-04T13:53:10.587Z,117.07
2023-02-04T13:55:37.462Z,117.00
2023-02-04T13:58:04.398Z,116.65
2023-02-04T14:00:32.916Z,110.60
2023-02-04T14:02:59.949Z,111.78
2023-02-04T14:05:26.809Z,107.28
2023-02-04T14:07:53.869Z,108.20
2023-02-04T14:10:23.054Z,109.03
2023-02-04T14:12:50.292Z,104.55
2023-02-04T14:15:17.693Z,97.63
2023-02-04T14:17:47.587Z,107.22
2023-02-04T14:20:14.433Z,104.25
2023-02-04T14:22:41.295Z,104.30
2023-02-04T14:25:10.234Z,103.00
2023-02-04T14:27:41.998Z,101.10
2023-02-04T14:30:29.736Z,104.13
2023-02-04T14:32:57.164Z,101.65
2023-02-04T14:35:24.464Z,101.97
2023-02-04T14:37:51.357Z,103.43
2023-02-04T14:40:19.707Z,107.15
2023-02-04T14:42:47.310Z,108.95
2023-02-04T14:45:15.548Z,110.65
2023-02-04T14:47:42.835Z,116.55
2023-02-04T14:50:14.294Z,116.75
2023-02-04T14:52:41.505Z,115.30
2023-02-04T14:55:11.072Z,120.20
2023-02-04T14:57:37.941Z,127.22
2023-02-04T15:00:06.881Z,135.10
2023-02-04T15:02:33.808Z,137.77
2023-02-04T15:05:03.762Z,136.93
2023-02-04T15:07:30.607Z,141.98
2023-02-04T15:09:57.501Z,144.43
2023-02-04T15:12:24.358Z,146.43
2023-02-04T15:14:51.201Z,149.52
2023-02-04T15:17:18.809Z,146.75
2023-02-04T15:19:46.019Z,143.88
2023-02-04T15:22:12.893Z,145.35
2023-02-04T15:24:39.892Z,144.85
2023-02-04T15:27:07.011Z,142.85
2023-02-04T15:29:33.989Z,144.50
2023-02-04T15:32:00.854Z,145.00
2023-02-04T15:34:27.817Z,140.88
2023-02-04T15:36:55.038Z,148.77
2023-02-04T15:39:21.903Z,143.05
2023-02-04T15:41:48.757Z,147.38
2023-02-04T15:44:15.635Z,147.98
2023-02-04T15:46:42.525Z,144.15
2023-02-04T15:49:12.238Z,141.55
2023-02-04T15:51:39.047Z,140.38
2023-02-04T15:54:06.008Z,138.13
2023-02-04T15:56:32.890Z,136.27
2023-02-04T15:59:02.172Z,134.82
2023-02-04T16:01:29.275Z,139.20
2023-02-04T16:03:56.903Z,139.52
2023-02-04T16:06:27.163Z,132.45
2023-02-04T16:08:54.030Z,131.82
2023-02-04T16:11:20.874Z,135.13
2023-02-04T16:13:47.654Z,131.85
2023-02-04T16:16:17.352Z,135.95
2023-02-04T16:18:44.287Z,131.43
2023-02-04T16:21:11.203Z,131.65
2023-02-04T16:23:41.359Z,127.40
2023-02-04T16:26:09.034Z,126.03
2023-02-04T16:28:35.902Z,132.73
2023-02-04T16:31:02.981Z,132.20
2023-02-04T16:33:29.911Z,132.50
2023-02-04T16:36:02.474Z,136.18
2023-02-04T16:40:57.618Z,136.05
2023-02-04T16:43:24.571Z,134.90
2023-02-04T16:45:51.722Z,131.55
2023-02-04T16:48:18.621Z,130.25
2023-02-04T16:50:45.418Z,138.48
2023-02-04T16:53:16.057Z,137.15
2023-02-04T16:55:44.272Z,132.57
2023-02-04T16:58:12.358Z,128.27
2023-02-04T17:00:42.110Z,123.47
2023-02-04T17:03:10.476Z,120.03
2023-02-04T17:05:38.520Z,116.32
2023-02-04T17:08:06.064Z,115.63
2023-02-04T17:10:51.886Z,110.90
2023-02-04T17:13:19.212Z,114.95
2023-02-04T17:15:46.144Z,114.68
2023-02-04T17:18:13.150Z,114.32
2023-02-04T17:20:39.955Z,107.28
2023-02-04T17:23:06.815Z,106.75
2023-02-04T17:25:34.050Z,97.65
2023-02-04T17:28:01.187Z,104.95
2023-02-04T17:30:29.271Z,97.32
2023-02-04T17:32:56.170Z,93.60
2023-02-04T17:35:22.978Z,91.60
2023-02-04T17:37:49.934Z,92.70
2023-02-04T17:40:19.756Z,88.75
2023-02-04T17:42:46.586Z,86.35
2023-02-04T17:45:13.862Z,80.60
2023-02-04T17:47:41.180Z,76.60
2023-02-04T17:50:10.221Z,76.25
2023-02-04T17:52:37.925Z,73.97
2023-02-04T17:55:25.388Z,70.85
2023-02-04T17:57:52.279Z,72.20
2023-02-04T18:00:21.722Z,74.22
2023-02-04T18:02:51.376Z,65.07
2023-02-04T18:05:27.697Z,66.25
2023-02-04T18:08:11.314Z,62.28
2023-02-04T18:10:41.394Z,58.55
2023-02-04T18:13:31.791Z,67.30
2023-02-04T18:16:10.131Z,64.55
2023-02-04T18:18:40.036Z,64.10
2023-02-04T18:21:25.280Z,62.60
2023-02-04T18:24:19.337Z,54.63
2023-02-04T18:26:52.164Z,48.55
2023-02-04T18:29:31.081Z,49.05
2023-02-04T18:32:02.555Z,46.92
2023-02-04T18:34:38.370Z,47.58
2023-02-04T18:37:26.412Z,46.80
2023-02-04T18:40:16.397Z,50.40
2023-02-04T18:42:44.988Z,53.22
2023-02-04T18:45:25.396Z,55.15
2023-02-04T18:47:57.309Z,47.05
2023-02-04T18:50:30.038Z,48.00
2023-02-04T18:53:06.286Z,45.67
2023-02-04T18:55:37.423Z,43.78
2023-02-04T18:58:42.732Z,45.20
2023-02-04T19:01:12.964Z,44.92
2023-02-04T19:03:59.421Z,45.65
2023-02-04T19:06:38.142Z,38.72
2023-02-04T19:09:14.586Z,40.35
2023-02-04T19:11:51.514Z,37.80
2023-02-04T19:14:21.110Z,31.67
2023-02-04T19:16:52.587Z,33.65
2023-02-04T19:19:36.818Z,32.45
2023-02-04T19:22:37.673Z,33.58
2023-02-04T19:25:24.439Z,35.78
2023-02-04T19:27:54.562Z,34.15
2023-02-04T19:30:27.695Z,35.67
2023-02-04T19:33:10.230Z,35.42
2023-02-04T19:35:41.234Z,31.70
2023-02-04T19:38:43.135Z,35.00
2023-02-04T19:41:33.757Z,34.47
2023-02-04T19:44:12.565Z,35.05
2023-02-04T19:46:41.010Z,37.53
2023-02-04T19:49:13.819Z,35.65
2023-02-04T19:51:40.947Z,36.20
2023-02-04T19:54:39.918Z,36.50
2023-02-04T19:57:28.374Z,37.28
2023-02-04T19:59:56.691Z,38.08
2023-02-04T20:02:38.355Z,40.28
2023-02-04T20:05:19.641Z,37.38
2023-02-04T20:07:46.597Z,34.90
2023-02-04T20:10:29.438Z,36.92
2023-02-04T20:15:26.244Z,37.67
2023-02-04T20:17:53.702Z,34.88
2023-02-04T20:20:29.953Z,37.45
2023-02-04T20:23:16.355Z,37.20
2023-02-04T20:25:48.429Z,37.33
2023-02-04T20:28:21.882Z,36.85
2023-02-04T20:30:50.519Z,43.92
2023-02-04T20:33:25.914Z,35.10
2023-02-04T20:35:52.720Z,37.67
2023-02-04T20:38:20.455Z,38.03
2023-02-04T20:40:47.551Z,32.15
2023-02-04T20:43:34.821Z,34.10
2023-02-04T20:46:07.235Z,36.30
2023-02-04T20:48:37.075Z,40.88
2023-02-04T20:51:07.866Z,32.90
2023-02-04T20:53:53.626Z,36.15
2023-02-04T20:56:35.518Z,33.83
2023-02-04T20:59:14.299Z,38.70
2023-02-04T21:01:44.246Z,50.75
2023-02-04T21:04:24.252Z,41.38
2023-02-04T21:06:53.331Z,42.15
2023-02-04T21:09:29.428Z,37.67
2023-02-04T21:11:57.406Z,47.20
2023-02-04T21:14:26.198Z,53.20
2023-02-04T21:16:54.818Z,53.70
2023-02-04T21:19:24.258Z,55.67
2023-02-04T21:21:51.717Z,56.13
2023-02-04T21:24:18.665Z,57.35
2023-02-04T21:26:45.618Z,57.28
2023-02-04T21:29:12.701Z,59.17
2023-02-04T21:31:39.991Z,59.20
2023-02-04T21:34:07.297Z,60.88
2023-02-04T21:36:34.375Z,60.40
2023-02-04T21:39:01.430Z,61.35
2023-02-04T21:41:31.389Z,59.08
2023-02-04T21:43:58.320Z,58.63
2023-02-04T21:46:25.213Z,60.00
2023-02-04T21:48:53.201Z,51.42
2023-02-04T21:51:20.071Z,50.53
2023-02-04T21:53:46.991Z,53.63
2023-02-04T21:56:14.472Z,53.03
2023-02-04T21:58:41.348Z,52.70
2023-02-04T22:01:09.017Z,52.78
2023-02-04T22:03:35.917Z,48.97
2023-02-04T22:06:02.812Z,45.42
2023-02-04T22:08:29.581Z,45.58
2023-02-04T22:10:56.895Z,40.70
2023-02-04T22:13:26.359Z,35.55
